sensor_id;sensor_type;location;lat;lon;timestamp;temperature;humidity
23403;DHT22;11874;48.228;11.684;2023-08-31T07:42:58;15.80;99.90
23403;DHT22;11874;48.228;11.684;2023-08-31T07:45:26;15.40;99.90
23403;DHT22;11874;48.228;11.684;2023-08-31T07:47:56;15.40;99.90
23403;DHT22;11874;48.228;11.684;2023-08-31T07:50:24;15.50;99.90
23403;DHT22;11874;48.228;11.684;2023-08-31T07:52:53;15.50;99.90
23403;DHT22;11874;48.228;11.684;2023-08-31T07:55:21;15.50;99.90
23403;DHT22;11874;48.228;11.684;2023-08-31T07:57:53;15.50;99.90
23403;DHT22;11874;48.228;11.684;2023-08-31T08:00:22;15.60;99.90
23403;DHT22;11874;48.228;11.684;2023-08-31T08:02:50;15.60;99.90
23403;DHT22;11874;48.228;11.684;2023-08-31T08:05:19;15.60;99.90
23403;DHT22;11874;48.228;11.684;2023-08-31T08:07:48;15.60;99.90
23403;DHT22;11874;48.228;11.684;2023-08-31T08:10:16;15.60;99.90
23403;DHT22;11874;48.228;11.684;2023-08-31T08:12:45;15.60;99.90
23403;DHT22;11874;48.228;11.684;2023-08-31T08:15:15;15.60;99.90
23403;DHT22;11874;48.228;11.684;2023-08-31T08:17:44;15.60;99.90
23403;DHT22;11874;48.228;11.684;2023-08-31T08:20:12;15.70;99.90
23403;DHT22;11874;48.228;11.684;2023-08-31T08:22:40;15.70;99.90
23403;DHT22;11874;48.228;11.684;2023-08-31T08:25:09;15.80;99.90
23403;DHT22;11874;48.228;11.684;2023-08-31T08:27:37;15.70;99.90
23403;DHT22;11874;48.228;11.684;2023-08-31T08:30:07;15.80;99.90
23403;DHT22;11874;48.228;11.684;2023-08-31T08:32:36;15.70;99.90
23403;DHT22;11874;48.228;11.684;2023-08-31T08:35:06;15.70;99.90
23403;DHT22;11874;48.228;11.684;2023-08-31T08:37:34;15.80;99.90
23403;DHT22;11874;48.228;11.684;2023-08-31T08:40:04;15.70;99.90
23403;DHT22;11874;48.228;11.684;2023-08-31T08:42:38;15.70;99.90
23403;DHT22;11874;48.228;11.684;2023-08-31T08:45:12;15.70;99.90
23403;DHT22;11874;48.228;11.684;2023-08-31T08:47:42;15.70;99.90
23403;DHT22;11874;48.228;11.684;2023-08-31T08:50:13;15.70;99.90
23403;DHT22;11874;48.228;11.684;2023-08-31T08:52:42;15.80;99.90
23403;DHT22;11874;48.228;11.684;2023-08-31T08:55:10;15.80;99.90
23403;DHT22;11874;48.228;11.684;2023-08-31T08:57:38;15.80;99.90
23403;DHT22;11874;48.228;11.684;2023-08-31T09:00:07;15.90;99.90
23403;DHT22;11874;48.228;11.684;2023-08-31T09:02:36;15.90;99.90
23403;DHT22;11874;48.228;11.684;2023-08-31T09:05:04;16.00;99.90
23403;DHT22;11874;48.228;11.684;2023-08-31T09:07:36;15.90;99.90
23403;DHT22;11874;48.228;11.684;2023-08-31T09:10:05;16.00;99.90
23403;DHT22;11874;48.228;11.684;2023-08-31T09:12:36;16.00;99.90
23403;DHT22;11874;48.228;11.684;2023-08-31T09:15:07;16.00;99.90
23403;DHT22;11874;48.228;11.684;2023-08-31T09:17:51;16.00;99.90
23403;DHT22;11874;48.228;11.684;2023-08-31T09:20:20;16.00;99.90
23403;DHT22;11874;48.228;11.684;2023-08-31T09:22:50;15.90;99.90
23403;DHT22;11874;48.228;11.684;2023-08-31T09:25:19;15.90;99.90
23403;DHT22;11874;48.228;11.684;2023-08-31T09:27:48;16.00;99.90
23403;DHT22;11874;48.228;11.684;2023-08-31T09:30:18;16.00;99.90
23403;DHT22;11874;48.228;11.684;2023-08-31T09:32:52;15.90;99.90
23403;DHT22;11874;48.228;11.684;2023-08-31T09:35:20;15.90;99.90
23403;DHT22;11874;48.228;11.684;2023-08-31T09:37:56;15.90;99.90
23403;DHT22;11874;48.228;11.684;2023-08-31T09:40:25;16.00;99.90
23403;DHT22;11874;48.228;11.684;2023-08-31T09:42:53;16.00;99.90
23403;DHT22;11874;48.228;11.684;2023-08-31T09:45:27;16.00;99.90
23403;DHT22;11874;48.228;11.684;2023-08-31T09:48:11;16.00;99.90
23403;DHT22;11874;48.228;11.684;2023-08-31T09:50:43;16.00;99.90
23403;DHT22;11874;48.228;11.684;2023-08-31T09:53:16;16.00;99.90
23403;DHT22;11874;48.228;11.684;2023-08-31T09:55:45;16.00;99.90
23403;DHT22;11874;48.228;11.684;2023-08-31T09:58:18;16.00;99.90
23403;DHT22;11874;48.228;11.684;2023-08-31T10:00:48;16.00;99.90
23403;DHT22;11874;48.228;11.684;2023-08-31T10:03:17;16.00;99.90
23403;DHT22;11874;48.228;11.684;2023-08-31T10:05:49;16.00;99.90
23403;DHT22;11874;48.228;11.684;2023-08-31T10:08:19;16.00;99.90
23403;DHT22;11874;48.228;11.684;2023-08-31T10:10:47;16.00;99.90
23403;DHT22;11874;48.228;11.684;2023-08-31T10:13:16;16.00;99.90
23403;DHT22;11874;48.228;11.684;2023-08-31T10:15:48;16.00;99.90
23403;DHT22;11874;48.228;11.684;2023-08-31T10:18:16;16.00;99.90
23403;DHT22;11874;48.228;11.684;2023-08-31T10:20:47;16.00;99.90
23403;DHT22;11874;48.228;11.684;2023-08-31T10:23:16;16.00;99.90
23403;DHT22;11874;48.228;11.684;2023-08-31T10:26:02;16.00;99.90
23403;DHT22;11874;48.228;11.684;2023-08-31T10:28:39;16.00;99.90
23403;DHT22;11874;48.228;11.684;2023-08-31T10:31:09;16.00;99.90
23403;DHT22;11874;48.228;11.684;2023-08-31T10:33:41;16.00;99.90
23403;DHT22;11874;48.228;11.684;2023-08-31T10:36:11;16.00;99.90
23403;DHT22;11874;48.228;11.684;2023-08-31T10:38:44;16.00;99.90
23403;DHT22;11874;48.228;11.684;2023-08-31T10:41:23;16.00;99.90
23403;DHT22;11874;48.228;11.684;2023-08-31T10:43:54;16.00;99.90
23403;DHT22;11874;48.228;11.684;2023-08-31T10:46:30;16.00;99.90
23403;DHT22;11874;48.228;11.684;2023-08-31T10:48:59;16.00;99.90
23403;DHT22;11874;48.228;11.684;2023-08-31T10:51:29;16.10;99.90
23403;DHT22;11874;48.228;11.684;2023-08-31T10:54:05;16.00;99.90
23403;DHT22;11874;48.228;11.684;2023-08-31T10:56:51;16.10;99.90
23403;DHT22;11874;48.228;11.684;2023-08-31T10:59:20;16.00;99.90
23403;DHT22;11874;48.228;11.684;2023-08-31T11:01:55;16.00;99.90
23403;DHT22;11874;48.228;11.684;2023-08-31T11:04:25;16.00;99.90
23403;DHT22;11874;48.228;11.684;2023-08-31T11:07:12;16.00;99.90
23403;DHT22;11874;48.228;11.684;2023-08-31T11:09:41;16.00;99.90
23403;DHT22;11874;48.228;11.684;2023-08-31T11:12:13;16.00;99.90
23403;DHT22;11874;48.228;11.684;2023-08-31T11:14:41;16.00;99.90
23403;DHT22;11874;48.228;11.684;2023-08-31T11:17:15;16.00;99.90
23403;DHT22;11874;48.228;11.684;2023-08-31T11:19:45;16.00;99.90
23403;DHT22;11874;48.228;11.684;2023-08-31T11:22:16;16.10;99.90
23403;DHT22;11874;48.228;11.684;2023-08-31T11:24:44;16.10;99.90
23403;DHT22;11874;48.228;11.684;2023-08-31T11:27:19;16.10;99.90
23403;DHT22;11874;48.228;11.684;2023-08-31T11:29:47;16.10;99.90
23403;DHT22;11874;48.228;11.684;2023-08-31T11:32:16;16.30;99.90
23403;DHT22;11874;48.228;11.684;2023-08-31T11:34:44;16.20;99.90
23403;DHT22;11874;48.228;11.684;2023-08-31T11:37:13;16.30;99.90
23403;DHT22;11874;48.228;11.684;2023-08-31T11:39:42;16.40;99.90
23403;DHT22;11874;48.228;11.684;2023-08-31T11:42:19;16.40;99.90
23403;DHT22;11874;48.228;11.684;2023-08-31T11:44:50;16.40;99.90
23403;DHT22;11874;48.228;11.684;2023-08-31T11:47:21;16.40;99.90
23403;DHT22;11874;48.228;11.684;2023-08-31T11:49:49;16.40;99.90
23403;DHT22;11874;48.228;11.684;2023-08-31T11:52:18;16.40;99.90
23403;DHT22;11874;48.228;11.684;2023-08-31T11:54:52;16.40;99.90
23403;DHT22;11874;48.228;11.684;2023-08-31T11:57:26;16.40;99.90
23403;DHT22;11874;48.228;11.684;2023-08-31T11:59:55;16.50;99.90
23403;DHT22;11874;48.228;11.684;2023-08-31T12:02:23;16.40;99.90
23403;DHT22;11874;48.228;11.684;2023-08-31T12:04:52;16.40;99.90
23403;DHT22;11874;48.228;11.684;2023-08-31T12:07:24;16.50;99.90
23403;DHT22;11874;48.228;11.684;2023-08-31T12:09:52;16.50;99.90
23403;DHT22;11874;48.228;11.684;2023-08-31T12:12:22;16.60;99.90
23403;DHT22;11874;48.228;11.684;2023-08-31T12:14:54;16.60;99.90
23403;DHT22;11874;48.228;11.684;2023-08-31T12:17:22;16.70;99.90
23403;DHT22;11874;48.228;11.684;2023-08-31T12:19:50;16.60;99.90
23403;DHT22;11874;48.228;11.684;2023-08-31T12:22:18;16.70;99.90
23403;DHT22;11874;48.228;11.684;2023-08-31T12:24:46;16.70;99.90
23403;DHT22;11874;48.228;11.684;2023-08-31T12:27:14;16.70;99.90
23403;DHT22;11874;48.228;11.684;2023-08-31T12:29:42;16.80;99.90
23403;DHT22;11874;48.228;11.684;2023-08-31T12:32:12;16.80;99.90
23403;DHT22;11874;48.228;11.684;2023-08-31T12:34:40;16.80;99.90
23403;DHT22;11874;48.228;11.684;2023-08-31T12:37:08;16.90;99.90
23403;DHT22;11874;48.228;11.684;2023-08-31T12:39:36;16.90;99.90
23403;DHT22;11874;48.228;11.684;2023-08-31T12:42:08;16.90;99.90
23403;DHT22;11874;48.228;11.684;2023-08-31T12:44:49;17.00;99.90
23403;DHT22;11874;48.228;11.684;2023-08-31T12:47:18;17.00;99.90
23403;DHT22;11874;48.228;11.684;2023-08-31T12:49:46;17.00;99.90
23403;DHT22;11874;48.228;11.684;2023-08-31T12:52:15;17.00;99.90
23403;DHT22;11874;48.228;11.684;2023-08-31T12:54:43;17.00;99.90
23403;DHT22;11874;48.228;11.684;2023-08-31T12:57:11;16.90;99.90
23403;DHT22;11874;48.228;11.684;2023-08-31T12:59:39;16.90;99.90
23403;DHT22;11874;48.228;11.684;2023-08-31T13:02:08;16.90;99.90
23403;DHT22;11874;48.228;11.684;2023-08-31T13:04:40;16.80;99.90
23403;DHT22;11874;48.228;11.684;2023-08-31T13:07:08;16.90;99.90
23403;DHT22;11874;48.228;11.684;2023-08-31T13:09:37;16.90;99.90
23403;DHT22;11874;48.228;11.684;2023-08-31T13:12:05;16.90;99.90
23403;DHT22;11874;48.228;11.684;2023-08-31T13:14:33;16.90;99.90
23403;DHT22;11874;48.228;11.684;2023-08-31T13:17:01;17.00;99.90
23403;DHT22;11874;48.228;11.684;2023-08-31T13:19:30;17.00;99.90
23403;DHT22;11874;48.228;11.684;2023-08-31T13:21:59;17.10;99.90
23403;DHT22;11874;48.228;11.684;2023-08-31T13:24:28;17.00;99.90
23403;DHT22;11874;48.228;11.684;2023-08-31T13:26:56;17.00;99.90
23403;DHT22;11874;48.228;11.684;2023-08-31T13:29:24;17.00;99.90
23403;DHT22;11874;48.228;11.684;2023-08-31T13:31:52;17.00;99.90
23403;DHT22;11874;48.228;11.684;2023-08-31T13:34:20;17.00;99.90
23403;DHT22;11874;48.228;11.684;2023-08-31T13:36:49;17.00;99.90
23403;DHT22;11874;48.228;11.684;2023-08-31T13:39:18;17.00;99.90
23403;DHT22;11874;48.228;11.684;2023-08-31T13:41:46;17.10;99.90
23403;DHT22;11874;48.228;11.684;2023-08-31T13:44:15;17.20;99.90
23403;DHT22;11874;48.228;11.684;2023-08-31T13:46:43;17.30;99.90
23403;DHT22;11874;48.228;11.684;2023-08-31T13:49:11;17.30;99.90
23403;DHT22;11874;48.228;11.684;2023-08-31T13:51:39;17.30;99.90
23403;DHT22;11874;48.228;11.684;2023-08-31T13:54:08;17.30;99.90
23403;DHT22;11874;48.228;11.684;2023-08-31T13:56:37;17.40;99.90
23403;DHT22;11874;48.228;11.684;2023-08-31T13:59:05;17.40;99.90
23403;DHT22;11874;48.228;11.684;2023-08-31T14:01:34;17.40;99.90
23403;DHT22;11874;48.228;11.684;2023-08-31T14:04:02;17.50;99.90
23403;DHT22;11874;48.228;11.684;2023-08-31T14:06:31;17.70;99.90
23403;DHT22;11874;48.228;11.684;2023-08-31T14:08:58;17.80;99.90
23403;DHT22;11874;48.228;11.684;2023-08-31T14:11:27;17.90;99.90
23403;DHT22;11874;48.228;11.684;2023-08-31T14:14:03;18.10;99.90
23403;DHT22;11874;48.228;11.684;2023-08-31T14:16:32;18.50;99.90
23403;DHT22;11874;48.228;11.684;2023-08-31T14:19:03;19.00;99.90
23403;DHT22;11874;48.228;11.684;2023-08-31T14:21:32;19.30;99.90
23403;DHT22;11874;48.228;11.684;2023-08-31T14:24:00;19.20;99.90
23403;DHT22;11874;48.228;11.684;2023-08-31T14:26:28;18.90;99.90
23403;DHT22;11874;48.228;11.684;2023-08-31T14:28:58;18.70;99.90
23403;DHT22;11874;48.228;11.684;2023-08-31T14:31:27;18.60;99.90
23403;DHT22;11874;48.228;11.684;2023-08-31T14:33:55;18.40;99.90
23403;DHT22;11874;48.228;11.684;2023-08-31T14:36:25;18.30;99.90
23403;DHT22;11874;48.228;11.684;2023-08-31T14:38:54;18.30;99.90
23403;DHT22;11874;48.228;11.684;2023-08-31T14:41:22;18.20;99.90
23403;DHT22;11874;48.228;11.684;2023-08-31T14:43:50;18.10;99.90
23403;DHT22;11874;48.228;11.684;2023-08-31T14:46:19;18.00;99.90
23403;DHT22;11874;48.228;11.684;2023-08-31T14:48:50;17.90;99.90
23403;DHT22;11874;48.228;11.684;2023-08-31T14:51:20;17.90;99.90
23403;DHT22;11874;48.228;11.684;2023-08-31T14:53:48;17.90;99.90
23403;DHT22;11874;48.228;11.684;2023-08-31T14:56:16;18.00;99.90
23403;DHT22;11874;48.228;11.684;2023-08-31T14:58:44;18.10;99.90
23403;DHT22;11874;48.228;11.684;2023-08-31T15:01:12;18.20;99.90
23403;DHT22;11874;48.228;11.684;2023-08-31T15:03:40;18.30;99.90
23403;DHT22;11874;48.228;11.684;2023-08-31T15:06:09;18.30;99.90
23403;DHT22;11874;48.228;11.684;2023-08-31T15:08:38;18.30;99.90
23403;DHT22;11874;48.228;11.684;2023-08-31T15:11:07;18.40;99.90
23403;DHT22;11874;48.228;11.684;2023-08-31T15:13:35;18.20;99.90
23403;DHT22;11874;48.228;11.684;2023-08-31T15:16:03;18.10;99.90
23403;DHT22;11874;48.228;11.684;2023-08-31T15:18:31;18.00;99.90
23403;DHT22;11874;48.228;11.684;2023-08-31T15:20:59;17.90;99.90
23403;DHT22;11874;48.228;11.684;2023-08-31T15:23:29;17.90;99.90
23403;DHT22;11874;48.228;11.684;2023-08-31T15:26:01;17.90;99.90
23403;DHT22;11874;48.228;11.684;2023-08-31T15:28:30;18.00;99.90
23403;DHT22;11874;48.228;11.684;2023-08-31T15:30:58;18.00;99.90
23403;DHT22;11874;48.228;11.684;2023-08-31T15:33:26;18.10;99.90
23403;DHT22;11874;48.228;11.684;2023-08-31T15:36:02;18.20;99.90
23403;DHT22;11874;48.228;11.684;2023-08-31T15:38:34;18.40;99.90
23403;DHT22;11874;48.228;11.684;2023-08-31T15:41:04;18.50;99.90
23403;DHT22;11874;48.228;11.684;2023-08-31T15:43:33;18.50;99.90
23403;DHT22;11874;48.228;11.684;2023-08-31T15:46:02;18.50;99.90
